Aérodrome :
LOGIN :

S'inscrire | Disclaimer

   EN    FR    IT 

 










Légende :    VFR   VFR Marginal   IFR   IFR Intensif   IFR Très Intensif
Visi : 
Plafond : 
>= 8 km
>= 3000ft
5 à 8 km
1000 à 3000 ft
1500m à 5 km
500 à 1000 ft
800 à 1500m
200 à 500 ft
< 800m
< 200 ft
Symboles :   Orages  Brouillard  Fortes neiges  Fortes précipitations  Vent > 20 kt
SIGMETs :   Divers  Orages  Givrage  Turbulence  Onde Orograph.  Cendres Volcan.






- Altitude de l'aérodrome : 300 ft
- Code IATA : MLA


LMML - Malta Luqa

DERNIER METAR :
  • 130715Z 28009KT 9999 FEW033 13/09 Q1009 BECMG NSW

METARs EXPIRÉS :
  • 130645Z 29010KT 9999 -SHRA FEW028 14/09 Q1009 BECMG NSW
  • 130615Z 30010KT 9999 FEW032 13/09 Q1009 NOSIG
  • 130545Z 29010KT 9999 FEW026 13/10 Q1009 NOSIG
  • 130515Z 30010KT 9999 FEW024TCU 13/10 Q1009 NOSIG
  • 130445Z 29011KT 9999 FEW024TCU 13/10 Q1009 NOSIG

TAF TAF LMML
Valide du 13 à 06h jusqu'au 14 à 06h UTC


130500Z 1306/1406 29017G27KT 9999 FEW020TCU SCT025
TEMPO 1306/1406 7000 SHRA SHRAGS BKN018TCU
PROB30
TEMPO 1306/1321 VRB25G38KT 3000 TSRA TSRAGS BKN018CB
BECMG 1310/1313 26025G40KT
BECMG 1322/1401 29030G48KT



MET'MAP, la Météo Aéronautique d'un coup d'oeil ! - Copyright ORBIFLY Décembre 2007 - Disclaimer

ORBIFLY MET'MAP TEAM :

Programmation & Développement : Alexandra Zaïnal
Sur une idée originale de : Baudouin d'Aumeries
Assistance à la programmation : Marc-Olivier Méhu
Soutien technique & logistique : Manuel Goepfert

Contact : metmap@orbifly.com




SOURCES & CREDITS :

   NOAA